Time;durP1;ratioP1;P1;durP2;ratioP2;P2;SDS_P1;SDS_P2;PMS_P1;PMS_P2;Temp;Humidity;BMP_temperature;BMP_pressure;BME280_temperature;BME280_humidity;BME280_pressure;Samples;Min_cycle;Max_cycle;Signal;HPM_P1;HPM_P2
2021/12/20 00:00:17;461610.00;1.54;795.75;0.00;0.00;0.62;;;;;8.10;1.00;;;;;;2268818;61;1051;-90
2021/12/20 00:02:48;368060.00;1.23;634.90;0.00;0.00;0.62;;;;;8.30;1.00;;;;;;2268641;61;1025;-89
2021/12/20 00:05:15;397592.00;1.33;685.67;0.00;0.00;0.62;;;;;8.30;1.00;;;;;;2272275;61;1436;-89
2021/12/20 00:07:43;321886.00;1.07;555.54;0.00;0.00;0.62;;;;;8.40;1.00;;;;;;2268550;61;980;-90
2021/12/20 00:10:12;450546.00;1.50;776.72;0.00;0.00;0.62;;;;;8.80;1.00;;;;;;2268774;61;1916;-90
2021/12/20 00:12:39;310750.00;1.04;536.40;0.00;0.00;0.62;;;;;9.40;1.00;;;;;;2270529;60;976;-89
2021/12/20 00:15:07;368466.00;1.23;635.60;0.00;0.00;0.62;;;;;8.80;1.00;;;;;;2280679;60;1404;-90
2021/12/20 00:17:35;382031.00;1.27;658.92;0.00;0.00;0.62;;;;;8.20;1.00;;;;;;2273685;60;989;-90
2021/12/20 00:20:03;384278.00;1.28;662.78;0.00;0.00;0.62;;;;;8.00;1.00;;;;;;2280582;60;1033;-89
2021/12/20 00:22:30;432787.00;1.44;746.18;0.00;0.00;0.62;;;;;8.00;1.00;;;;;;2280805;60;1127;-89
2021/12/20 00:24:57;322137.00;1.07;555.97;0.00;0.00;0.62;;;;;7.20;1.00;;;;;;2280541;60;1265;-89
2021/12/20 00:27:25;406609.00;1.36;701.17;0.00;0.00;0.62;;;;;7.10;1.00;;;;;;2272143;61;956;-90
2021/12/20 00:29:53;504372.00;1.68;869.35;15304.00;0.05;27.14;;;;;7.50;1.00;;;;;;2272092;61;1926;-88
2021/12/20 00:32:20;443020.00;1.48;763.78;0.00;0.00;0.62;;;;;7.50;1.00;;;;;;2271969;61;1022;-89
2021/12/20 00:34:48;477453.00;1.59;823.01;0.00;0.00;0.62;;;;;7.40;1.00;;;;;;2265381;61;1396;-90
2021/12/20 00:42:48;385179.00;1.28;664.33;0.00;0.00;0.62;;;;;7.70;1.00;;;;;;2263801;61;1044;-90
2021/12/20 00:45:19;651184.00;2.17;1122.68;0.00;0.00;0.62;;;;;7.50;1.00;;;;;;2257290;61;1360;-90
2021/12/20 00:47:47;352380.00;1.17;607.95;0.00;0.00;0.62;;;;;7.60;1.00;;;;;;2265356;61;1010;-89
2021/12/20 00:50:17;425874.00;1.42;734.29;0.00;0.00;0.62;;;;;8.00;1.00;;;;;;2262046;61;2002;-89
2021/12/20 00:52:45;414789.00;1.38;715.23;0.00;0.00;0.62;;;;;8.60;1.00;;;;;;2263908;61;955;-89
2021/12/20 00:55:15;419318.00;1.40;723.02;0.00;0.00;0.62;;;;;8.90;1.00;;;;;;2267661;61;1318;-91
2021/12/20 00:57:43;445845.00;1.49;768.64;0.00;0.00;0.62;;;;;9.10;1.00;;;;;;2262064;61;975;-89
2021/12/20 01:00:13;412797.00;1.38;711.81;0.00;0.00;0.62;;;;;9.10;1.00;;;;;;2265350;61;998;-90
2021/12/20 01:02:39;401086.00;1.34;691.67;0.00;0.00;0.62;;;;;9.50;1.00;;;;;;2263865;61;993;-90
2021/12/20 01:05:08;432056.00;1.44;744.92;0.00;0.00;0.62;;;;;9.70;1.00;;;;;;2257245;61;1408;-90
2021/12/20 01:07:34;330721.00;1.10;570.73;0.00;0.00;0.62;;;;;10.00;1.00;;;;;;2264000;61;1026;-89
2021/12/20 01:10:05;528483.00;1.76;910.88;17487.00;0.06;30.92;;;;;10.00;1.00;;;;;;2265135;61;2014;-90
2021/12/20 01:12:41;431867.00;1.44;744.60;0.00;0.00;0.62;;;;;9.60;1.00;;;;;;2265342;61;993;-89
2021/12/20 01:15:09;293892.00;0.98;507.42;0.00;0.00;0.62;;;;;9.60;1.00;;;;;;2263851;61;1348;-89
2021/12/20 01:17:38;345081.00;1.15;595.41;0.00;0.00;0.62;;;;;9.60;1.00;;;;;;2253787;61;1000;-89
2021/12/20 01:20:07;348778.00;1.16;601.76;0.00;0.00;0.62;;;;;9.70;1.00;;;;;;2259041;61;961;-90
2021/12/20 01:22:34;361418.00;1.20;623.49;0.00;0.00;0.62;;;;;10.00;1.00;;;;;;2271697;60;985;-90
2021/12/20 01:25:01;452871.00;1.51;780.72;0.00;0.00;0.62;;;;;9.50;1.00;;;;;;2271859;61;1357;-89
2021/12/20 01:27:28;385125.00;1.28;664.23;0.00;0.00;0.62;;;;;9.60;1.00;;;;;;2271894;61;958;-89
2021/12/20 01:29:54;376547.00;1.26;649.49;0.00;0.00;0.62;;;;;9.80;1.00;;;;;;2268394;61;1993;-89
2021/12/20 01:32:22;443871.00;1.48;765.24;0.00;0.00;0.62;;;;;9.70;1.00;;;;;;2272032;61;991;-90
2021/12/20 01:34:51;523086.00;1.74;901.58;0.00;0.00;0.62;;;;;9.60;1.00;;;;;;2271683;61;1295;-90
2021/12/20 01:37:18;364551.00;1.22;628.87;0.00;0.00;0.62;;;;;9.60;1.00;;;;;;2271920;61;1033;-89
2021/12/20 01:39:45;328906.00;1.10;567.61;0.00;0.00;0.62;;;;;9.80;1.00;;;;;;2274741;60;928;-88
2021/12/20 01:42:17;333786.00;1.11;575.99;0.00;0.00;0.62;;;;;9.90;1.00;;;;;;2273427;61;980;-90
2021/12/20 01:44:44;348340.00;1.16;601.01;0.00;0.00;0.62;;;;;10.10;1.00;;;;;;2280499;60;1419;-89
2021/12/20 01:47:13;472132.00;1.57;813.86;0.00;0.00;0.62;;;;;9.60;1.00;;;;;;2273231;60;983;-90
2021/12/20 01:49:52;386008.00;1.29;665.75;0.00;0.00;0.62;;;;;9.80;1.00;;;;;;2270011;60;1916;-89
2021/12/20 01:52:23;336610.00;1.12;580.85;0.00;0.00;0.62;;;;;9.70;1.00;;;;;;2279826;60;1092;-90
2021/12/20 01:54:50;305701.00;1.02;527.72;0.00;0.00;0.62;;;;;9.90;1.00;;;;;;2273342;60;1392;-89
2021/12/20 01:57:19;395093.00;1.32;681.37;0.00;0.00;0.62;;;;;10.10;1.00;;;;;;2280472;60;1044;-90
2021/12/20 01:59:46;369687.00;1.23;637.70;0.00;0.00;0.62;;;;;10.30;1.00;;;;;;2270112;60;1050;-89
2021/12/20 02:02:13;586102.00;1.95;1010.23;0.00;0.00;0.62;;;;;9.80;1.00;;;;;;2280406;60;1026;-90
2021/12/20 02:04:46;469436.00;1.56;809.22;0.00;0.00;0.62;;;;;9.80;1.00;;;;;;2280388;60;1379;-89
2021/12/20 02:07:31;324736.00;1.08;560.44;0.00;0.00;0.62;;;;;10.40;1.00;;;;;;2270013;60;940;-90
2021/12/20 02:09:59;306299.00;1.02;528.75;0.00;0.00;0.62;;;;;10.20;1.00;;;;;;2280448;60;1982;-89
2021/12/20 02:12:26;380422.00;1.27;656.15;0.00;0.00;0.62;;;;;10.10;1.00;;;;;;2280471;60;1017;-89
2021/12/20 02:14:53;512886.00;1.71;884.01;0.00;0.00;0.62;;;;;9.40;1.00;;;;;;2280427;60;1443;-89
2021/12/20 02:17:20;456253.00;1.52;786.54;0.00;0.00;0.62;;;;;8.90;1.00;;;;;;2280456;60;1012;-88
2021/12/20 02:19:47;447585.00;1.49;771.63;0.00;0.00;0.62;;;;;8.40;1.00;;;;;;2273297;60;1009;-88
2021/12/20 02:22:18;380191.00;1.27;655.75;0.00;0.00;0.62;;;;;8.60;1.00;;;;;;2271779;61;977;-89
2021/12/20 02:24:44;461519.00;1.54;795.60;0.00;0.00;0.62;;;;;9.10;1.00;;;;;;2265058;61;1401;-88
2021/12/20 02:27:11;673554.00;2.25;1161.41;0.00;0.00;0.62;;;;;8.70;1.00;;;;;;2265090;61;1086;-89
2021/12/20 02:29:56;574431.00;1.91;990.09;0.00;0.00;0.62;;;;;8.40;1.00;;;;;;2268362;61;2002;-90
2021/12/20 02:37:58;438482.00;1.46;755.97;0.00;0.00;0.62;;;;;8.80;1.00;;;;;;2259776;61;1088;-88
2021/12/20 02:40:24;606184.00;2.02;1044.90;0.00;0.00;0.62;;;;;8.70;1.00;;;;;;2256016;61;1023;-89
2021/12/20 02:42:52;554751.00;1.85;956.15;0.00;0.00;0.62;;;;;8.80;1.00;;;;;;2263632;61;1002;-90
2021/12/20 02:45:19;441461.00;1.47;761.10;0.00;0.00;0.62;;;;;8.50;1.00;;;;;;2257019;61;1432;-90
2021/12/20 02:47:48;397806.00;1.33;686.03;0.00;0.00;0.62;;;;;8.60;1.00;;;;;;2263753;61;1035;-89
2021/12/20 02:50:16;463343.00;1.54;798.74;0.00;0.00;0.62;;;;;9.20;1.00;;;;;;2263714;61;1915;-89
2021/12/20 02:52:43;526087.00;1.75;906.75;0.00;0.00;0.62;;;;;9.50;1.00;;;;;;2257010;61;1117;-89
2021/12/20 02:55:13;524720.00;1.75;904.40;0.00;0.00;0.62;;;;;9.80;1.00;;;;;;2257469;61;1328;-88
2021/12/20 02:57:40;442561.00;1.48;762.99;0.00;0.00;0.62;;;;;9.30;1.00;;;;;;2264355;61;1177;-90
2021/12/20 03:00:10;576773.00;1.92;994.13;0.00;0.00;0.62;;;;;9.20;1.00;;;;;;2264936;61;1108;-90
2021/12/20 03:02:38;485503.00;1.62;836.87;0.00;0.00;0.62;;;;;9.20;1.00;;;;;;2268475;61;1008;-90
2021/12/20 03:05:07;481634.00;1.61;830.21;0.00;0.00;0.62;;;;;9.60;1.00;;;;;;2268362;61;1474;-91
2021/12/20 03:07:42;650144.00;2.17;1120.89;0.00;0.00;0.62;;;;;10.00;1.00;;;;;;2258328;61;991;-89
2021/12/20 03:10:11;584690.00;1.95;1007.79;0.00;0.00;0.62;;;;;10.40;1.00;;;;;;2264975;61;1922;-89
2021/12/20 03:12:38;505011.00;1.68;870.45;0.00;0.00;0.62;;;;;9.50;1.00;;;;;;2268173;60;1002;-89
2021/12/20 03:15:12;418816.00;1.40;722.15;0.00;0.00;0.62;;;;;9.50;1.00;;;;;;2270396;60;1269;-90
2021/12/20 03:17:39;469066.00;1.56;808.58;0.00;0.00;0.62;;;;;9.90;1.00;;;;;;2281003;60;921;-89
2021/12/20 03:20:07;521798.00;1.74;899.36;0.00;0.00;0.62;;;;;10.50;1.00;;;;;;2277165;60;1047;-90
2021/12/20 03:22:34;697054.00;2.32;1202.13;69651.00;0.23;121.16;;;;;10.60;1.00;;;;;;2273840;60;1017;-90
2021/12/20 03:25:01;531269.00;1.77;915.68;0.00;0.00;0.62;;;;;10.90;1.00;;;;;;2280932;60;1432;-88
2021/12/20 03:27:29;336561.00;1.12;580.76;0.00;0.00;0.62;;;;;10.90;1.00;;;;;;2273841;60;950;-89
2021/12/20 03:29:56;393709.00;1.31;678.99;0.00;0.00;0.62;;;;;10.60;1.00;;;;;;2273799;60;2005;-89
2021/12/20 03:32:23;428203.00;1.43;738.30;0.00;0.00;0.62;;;;;10.50;1.00;;;;;;2273800;60;961;-90
2021/12/20 03:34:50;503752.00;1.68;868.28;0.00;0.00;0.62;;;;;9.90;1.00;;;;;;2273394;60;1423;-89
2021/12/20 03:37:17;494344.00;1.65;852.09;0.00;0.00;0.62;;;;;9.50;1.00;;;;;;2270466;60;977;-90
2021/12/20 03:39:44;446783.00;1.49;770.25;0.00;0.00;0.62;;;;;9.00;1.00;;;;;;2273742;60;969;-89
2021/12/20 03:42:11;583487.00;1.94;1005.72;0.00;0.00;0.62;;;;;9.10;1.00;;;;;;2280856;60;998;-90
2021/12/20 03:51:58;170958.00;0.57;295.92;0.00;0.00;0.62;;;;;8.80;1.00;;;;;;2282359;61;1968;-88
2021/12/20 03:54:24;192317.00;0.64;332.70;0.00;0.00;0.62;;;;;9.10;1.00;;;;;;2280594;61;1168;-86
2021/12/20 03:56:51;130183.00;0.43;225.64;0.00;0.00;0.62;;;;;9.60;1.00;;;;;;2280568;61;1137;-86
2021/12/20 03:59:18;141865.00;0.47;245.79;0.00;0.00;0.62;;;;;9.90;1.00;;;;;;2280533;60;1262;-85
2021/12/20 04:01:45;44332.00;0.15;77.38;0.00;0.00;0.62;;;;;9.60;1.00;;;;;;2280519;61;1141;-87
2021/12/20 04:04:12;131649.00;0.44;228.17;0.00;0.00;0.62;;;;;8.80;1.00;;;;;;2280564;61;1289;-88
2021/12/20 04:06:39;118987.00;0.40;206.33;0.00;0.00;0.62;;;;;8.00;1.00;;;;;;2280730;60;1187;-85
2021/12/20 04:09:07;108750.00;0.36;188.67;0.00;0.00;0.62;;;;;7.90;1.00;;;;;;2280630;60;1406;-87
2021/12/20 04:11:34;257299.00;0.86;444.50;0.00;0.00;0.62;;;;;8.30;1.00;;;;;;2280530;61;1923;-87
2021/12/20 04:14:02;118539.00;0.40;205.56;0.00;0.00;0.62;;;;;9.00;1.00;;;;;;2280728;60;1316;-86
2021/12/20 04:16:29;93948.00;0.31;163.12;0.00;0.00;0.62;;;;;9.50;1.00;;;;;;2280809;61;1095;-85
2021/12/20 04:18:56;78097.00;0.26;135.75;0.00;0.00;0.62;;;;;9.20;1.00;;;;;;2280701;60;1319;-85
2021/12/20 04:21:23;109401.00;0.36;189.80;0.00;0.00;0.62;;;;;9.80;1.00;;;;;;2280661;61;1152;-85
2021/12/20 04:23:50;85631.00;0.29;148.76;0.00;0.00;0.62;;;;;10.30;1.00;;;;;;2280661;61;1109;-85
2021/12/20 04:26:18;121610.00;0.41;210.86;0.00;0.00;0.62;;;;;10.40;1.00;;;;;;2280718;61;1146;-85
2021/12/20 04:28:45;41728.00;0.14;72.88;0.00;0.00;0.62;;;;;10.30;1.00;;;;;;2280702;61;1335;-85
2021/12/20 04:31:12;49752.00;0.17;86.76;0.00;0.00;0.62;;;;;9.80;1.00;;;;;;2280650;61;1992;-86
2021/12/20 04:33:39;50671.00;0.17;88.35;0.00;0.00;0.62;;;;;9.40;1.00;;;;;;2280669;60;1069;-85
2021/12/20 04:36:06;217688.00;0.73;376.37;0.00;0.00;0.62;;;;;9.40;1.00;;;;;;2280957;60;1143;-82
2021/12/20 04:38:33;79517.00;0.27;138.20;0.00;0.00;0.62;;;;;9.10;1.00;;;;;;2280844;60;1293;-84
2021/12/20 04:41:00;102309.00;0.34;177.56;0.00;0.00;0.62;;;;;9.00;1.00;;;;;;2280907;60;1115;-82
2021/12/20 04:43:29;132236.00;0.44;229.18;0.00;0.00;0.62;;;;;9.20;1.00;;;;;;2280763;60;1035;-86
2021/12/20 04:45:56;114349.00;0.38;198.33;0.00;0.00;0.62;;;;;8.90;1.00;;;;;;2280854;60;1102;-84
2021/12/20 04:48:23;63745.00;0.21;110.95;0.00;0.00;0.62;;;;;9.10;1.00;;;;;;2280701;60;1489;-85
2021/12/20 04:50:50;254232.00;0.85;439.23;0.00;0.00;0.62;;;;;9.40;1.00;;;;;;2280210;61;2002;-85
2021/12/20 04:53:17;81142.00;0.27;141.01;0.00;0.00;0.62;;;;;9.40;1.00;;;;;;2280357;60;1165;-86
2021/12/20 04:55:44;42037.00;0.14;73.41;0.00;0.00;0.62;;;;;9.40;1.00;;;;;;2280613;61;1163;-86
2021/12/20 04:58:12;87722.00;0.29;152.37;0.00;0.00;0.62;;;;;9.70;1.00;;;;;;2280436;61;1396;-86
2021/12/20 05:00:41;40830.00;0.14;71.32;0.00;0.00;0.62;;;;;10.10;1.00;;;;;;2280593;61;1064;-86
2021/12/20 05:03:09;46728.00;0.16;81.53;0.00;0.00;0.62;;;;;10.10;1.00;;;;;;2280656;61;1155;-86
2021/12/20 05:05:36;45657.00;0.15;79.67;0.00;0.00;0.62;;;;;10.00;1.00;;;;;;2280490;61;1111;-86
2021/12/20 05:08:04;8033.00;0.03;14.54;0.00;0.00;0.62;;;;;9.80;1.00;;;;;;2280238;61;1375;-86
2021/12/20 05:10:34;131099.00;0.44;227.22;0.00;0.00;0.62;;;;;9.70;1.00;;;;;;2280575;60;1919;-86
2021/12/20 05:13:03;52428.00;0.17;91.39;0.00;0.00;0.62;;;;;9.70;1.00;;;;;;2280545;61;1119;-86
2021/12/20 05:15:30;127136.00;0.42;220.39;0.00;0.00;0.62;;;;;9.40;1.00;;;;;;2280464;61;919;-85
2021/12/20 05:17:59;120662.00;0.40;209.22;0.00;0.00;0.62;;;;;9.10;1.00;;;;;;2280444;61;1334;-85
2021/12/20 05:20:26;141476.00;0.47;245.12;0.00;0.00;0.62;;;;;9.10;1.00;;;;;;2280692;61;1060;-85
2021/12/20 05:22:54;245622.00;0.82;424.42;15402.00;0.05;27.31;;;;;9.10;1.00;;;;;;2280600;61;1125;-85
2021/12/20 05:25:22;224143.00;0.75;387.47;0.00;0.00;0.62;;;;;9.30;1.00;;;;;;2280759;60;866;-83
2021/12/20 05:27:49;56203.00;0.19;97.91;0.00;0.00;0.62;;;;;9.30;1.00;;;;;;2280192;61;1331;-86
2021/12/20 05:30:17;80292.00;0.27;139.54;0.00;0.00;0.62;;;;;9.10;1.00;;;;;;2280489;60;1199;-85
2021/12/20 05:32:44;97779.00;0.33;169.74;0.00;0.00;0.62;;;;;9.60;1.00;;;;;;2280565;60;1084;-84
2021/12/20 05:35:14;55947.00;0.19;97.47;0.00;0.00;0.62;;;;;10.20;1.00;;;;;;2280621;60;1114;-85
2021/12/20 05:37:42;69442.00;0.23;120.80;0.00;0.00;0.62;;;;;10.30;1.00;;;;;;2280655;61;1391;-85
2021/12/20 05:40:11;125373.00;0.42;217.35;0.00;0.00;0.62;;;;;10.10;1.00;;;;;;2280697;61;1134;-85
2021/12/20 05:42:39;102545.00;0.34;177.96;0.00;0.00;0.62;;;;;9.80;1.00;;;;;;2280636;61;1040;-86
2021/12/20 05:45:07;193852.00;0.65;335.34;148.00;0.00;0.88;;;;;9.90;1.00;;;;;;2280633;60;1150;-83
2021/12/20 05:47:34;60234.00;0.20;104.88;0.00;0.00;0.62;;;;;10.00;1.00;;;;;;2280632;60;1360;-84
2021/12/20 05:50:02;44039.00;0.15;76.88;0.00;0.00;0.62;;;;;10.10;1.00;;;;;;2280650;60;1068;-84
2021/12/20 05:52:30;140626.00;0.47;243.65;0.00;0.00;0.62;;;;;10.20;1.00;;;;;;2280585;60;1986;-86
2021/12/20 05:54:57;73644.00;0.25;128.06;0.00;0.00;0.62;;;;;10.20;1.00;;;;;;2280450;61;1315;-84
2021/12/20 05:57:24;82245.00;0.27;142.92;0.00;0.00;0.62;;;;;10.30;1.00;;;;;;2280206;61;1388;-84
2021/12/20 05:59:51;118278.00;0.39;205.11;0.00;0.00;0.62;;;;;10.20;1.00;;;;;;2279390;60;1131;-83
2021/12/20 06:02:18;123513.00;0.41;214.14;0.00;0.00;0.62;;;;;10.00;1.00;;;;;;2280118;60;1151;-84
2021/12/20 06:04:50;101896.00;0.34;176.84;0.00;0.00;0.62;;;;;9.90;1.00;;;;;;2280433;61;1142;-86
2021/12/20 06:07:17;61509.00;0.21;107.09;0.00;0.00;0.62;;;;;9.60;1.00;;;;;;2280167;61;1388;-85
2021/12/20 06:09:46;109198.00;0.36;189.45;0.00;0.00;0.62;;;;;9.40;1.00;;;;;;2280208;61;1098;-85
2021/12/20 06:12:13;110417.00;0.37;191.55;0.00;0.00;0.62;;;;;9.10;1.00;;;;;;2280231;61;1996;-84
2021/12/20 06:14:40;162221.00;0.54;280.87;0.00;0.00;0.62;;;;;9.30;1.00;;;;;;2280419;61;1043;-85
2021/12/20 06:17:07;67523.00;0.23;117.48;0.00;0.00;0.62;;;;;9.30;1.00;;;;;;2280322;60;1327;-85
2021/12/20 06:19:34;26988.00;0.09;47.37;0.00;0.00;0.62;;;;;9.30;1.00;;;;;;2280502;60;1071;-87
2021/12/20 06:22:01;55764.00;0.19;97.15;0.00;0.00;0.62;;;;;10.00;1.00;;;;;;2280401;60;1125;-86
2021/12/20 06:24:28;49672.00;0.17;86.62;0.00;0.00;0.62;;;;;10.30;1.00;;;;;;2280222;60;1085;-87
2021/12/20 06:26:57;70083.00;0.23;121.90;0.00;0.00;0.62;;;;;10.30;1.00;;;;;;2280335;61;1103;-86
2021/12/20 06:29:23;210192.00;0.70;363.47;0.00;0.00;0.62;;;;;9.90;1.00;;;;;;2280586;60;1361;-87
2021/12/20 06:31:50;18750.00;0.06;33.11;0.00;0.00;0.62;;;;;10.00;1.00;;;;;;2280789;60;1921;-86
2021/12/20 06:34:17;86547.00;0.29;150.34;0.00;0.00;0.62;;;;;10.40;1.00;;;;;;2281009;60;1182;-87
2021/12/20 06:36:44;100589.00;0.34;174.59;0.00;0.00;0.62;;;;;10.50;1.00;;;;;;2280851;61;1148;-87
2021/12/20 06:39:11;87983.00;0.29;152.82;0.00;0.00;0.62;;;;;10.30;1.00;;;;;;2281096;60;1274;-84
2021/12/20 06:41:39;59453.00;0.20;103.53;0.00;0.00;0.62;;;;;10.30;1.00;;;;;;2281212;60;1110;-85
2021/12/20 06:44:07;81389.00;0.27;141.44;0.00;0.00;0.62;;;;;9.90;1.00;;;;;;2281278;60;1129;-84
2021/12/20 06:46:40;73554.00;0.25;127.90;0.00;0.00;0.62;;;;;9.20;1.00;;;;;;2281255;60;1111;-86
2021/12/20 06:49:09;79260.00;0.26;137.76;0.00;0.00;0.62;;;;;9.20;1.00;;;;;;2281182;61;1412;-87
2021/12/20 06:51:39;94822.00;0.32;164.63;0.00;0.00;0.62;;;;;9.50;1.00;;;;;;2281030;60;1993;-84
2021/12/20 06:54:06;79040.00;0.26;137.38;0.00;0.00;0.62;;;;;9.80;1.00;;;;;;2281268;60;1098;-85
2021/12/20 06:56:33;54025.00;0.18;94.15;0.00;0.00;0.62;;;;;9.90;1.00;;;;;;2281260;60;1017;-85
2021/12/20 06:59:00;233133.00;0.78;402.94;0.00;0.00;0.62;;;;;9.50;1.00;;;;;;2281244;60;1419;-85
2021/12/20 07:01:28;178389.00;0.59;308.72;0.00;0.00;0.62;;;;;9.20;1.00;;;;;;2281144;60;1082;-85
2021/12/20 07:03:55;160610.00;0.54;278.09;0.00;0.00;0.62;;;;;9.10;1.00;;;;;;2281259;61;1065;-85
2021/12/20 07:06:22;212315.00;0.71;367.12;19376.00;0.06;34.19;;;;;9.20;1.00;;;;;;2281140;61;1087;-86
2021/12/20 07:08:50;41716.00;0.14;72.86;0.00;0.00;0.62;;;;;9.90;1.00;;;;;;2281107;60;1371;-85
2021/12/20 07:11:16;80179.00;0.27;139.35;0.00;0.00;0.62;;;;;10.30;1.00;;;;;;2281043;61;1919;-87
2021/12/20 07:13:43;57155.00;0.19;99.56;0.00;0.00;0.62;;;;;10.20;1.00;;;;;;2281122;60;1104;-86
2021/12/20 07:16:12;105126.00;0.35;182.42;0.00;0.00;0.62;;;;;10.60;1.00;;;;;;2280987;61;1042;-86
2021/12/20 07:18:40;71039.00;0.24;123.56;0.00;0.00;0.62;;;;;10.80;1.00;;;;;;2281006;60;1384;-85
2021/12/20 07:21:07;91553.00;0.31;158.99;0.00;0.00;0.62;;;;;10.30;1.00;;;;;;2281134;60;1131;-84
2021/12/20 07:23:35;764497.00;2.55;1319.27;253948.00;0.85;438.74;;;;;10.30;1.00;;;;;;2281164;60;1007;-84
2021/12/20 07:26:02;131192.00;0.44;227.38;0.00;0.00;0.62;;;;;10.10;1.00;;;;;;2281120;61;1121;-84
2021/12/20 07:28:29;42962.00;0.14;75.01;0.00;0.00;0.62;;;;;9.80;1.00;;;;;;2281072;60;1392;-84
2021/12/20 07:30:56;39690.00;0.13;69.35;0.00;0.00;0.62;;;;;9.40;1.00;;;;;;2281088;60;1996;-84
2021/12/20 07:33:23;155596.00;0.52;269.45;0.00;0.00;0.62;;;;;8.90;1.00;;;;;;2281120;60;1119;-83
2021/12/20 07:35:52;312077.00;1.04;538.68;0.00;0.00;0.62;;;;;8.80;1.00;;;;;;2281087;60;1052;-85
2021/12/20 07:38:19;123917.00;0.41;214.84;0.00;0.00;0.62;;;;;8.30;1.00;;;;;;2281045;60;1285;-84
2021/12/20 07:40:48;147324.00;0.49;255.20;0.00;0.00;0.62;;;;;8.50;1.00;;;;;;2280994;60;1123;-83
2021/12/20 07:43:18;96930.00;0.32;168.27;0.00;0.00;0.62;;;;;8.30;1.00;;;;;;2281093;60;1101;-84
2021/12/20 07:45:47;85796.00;0.29;149.05;0.00;0.00;0.62;;;;;8.60;1.00;;;;;;2281178;60;940;-84
2021/12/20 07:48:14;169677.00;0.57;293.71;0.00;0.00;0.62;;;;;8.60;1.00;;;;;;2280809;60;1413;-84
2021/12/20 07:50:41;83317.00;0.28;144.77;0.00;0.00;0.62;;;;;8.50;1.00;;;;;;2281022;60;1051;-86
2021/12/20 07:53:10;170783.00;0.57;295.62;0.00;0.00;0.62;;;;;8.80;1.00;;;;;;2280792;60;2005;-85
2021/12/20 07:55:37;146200.00;0.49;253.26;0.00;0.00;0.62;;;;;8.90;1.00;;;;;;2281067;60;1063;-86
2021/12/20 07:58:04;203651.00;0.68;352.21;0.00;0.00;0.62;;;;;9.40;1.00;;;;;;2280845;60;1451;-84
2021/12/20 08:00:31;104010.00;0.35;180.49;0.00;0.00;0.62;;;;;9.50;1.00;;;;;;2280881;60;1154;-85
2021/12/20 08:02:58;20785.00;0.07;36.63;0.00;0.00;0.62;;;;;9.60;1.00;;;;;;2281045;60;1047;-86
2021/12/20 08:05:27;85496.00;0.28;148.53;0.00;0.00;0.62;;;;;9.50;1.00;;;;;;2280806;60;1145;-85
2021/12/20 08:07:54;128644.00;0.43;222.99;0.00;0.00;0.62;;;;;9.30;1.00;;;;;;2280885;60;1420;-85
2021/12/20 08:10:25;324083.00;1.08;559.32;57295.00;0.19;99.80;;;;;9.30;1.00;;;;;;2280634;60;988;-86
2021/12/20 08:12:54;80821.00;0.27;140.46;0.00;0.00;0.62;;;;;9.60;1.00;;;;;;2280938;60;1994;-85
2021/12/20 08:15:22;72174.00;0.24;125.52;0.00;0.00;0.62;;;;;9.80;1.00;;;;;;2280695;60;1127;-85
2021/12/20 08:17:49;120586.00;0.40;209.09;0.00;0.00;0.62;;;;;9.80;1.00;;;;;;2280990;60;1374;-84
2021/12/20 08:20:16;76356.00;0.25;132.74;0.00;0.00;0.62;;;;;9.60;1.00;;;;;;2280898;60;1029;-83
2021/12/20 08:22:43;264609.00;0.88;457.07;13635.00;0.05;24.25;;;;;9.30;1.00;;;;;;2280807;60;1067;-84
2021/12/20 08:25:12;347531.00;1.16;599.62;73143.00;0.24;127.19;;;;;9.50;1.00;;;;;;2280916;60;1119;-85
2021/12/20 08:27:41;193172.00;0.64;334.17;0.00;0.00;0.62;;;;;9.60;1.00;;;;;;2280554;60;1297;-85
2021/12/20 08:30:09;125806.00;0.42;218.10;0.00;0.00;0.62;;;;;9.40;1.00;;;;;;2280677;60;1166;-85
2021/12/20 08:32:36;84346.00;0.28;146.54;0.00;0.00;0.62;;;;;9.20;1.00;;;;;;2280729;60;1920;-85
2021/12/20 08:35:04;102475.00;0.34;177.84;0.00;0.00;0.62;;;;;9.20;1.00;;;;;;2280846;61;1134;-85
2021/12/20 08:37:31;99005.00;0.33;171.85;0.00;0.00;0.62;;;;;9.30;1.00;;;;;;2280626;60;1530;-83
2021/12/20 08:39:58;326961.00;1.09;564.26;26228.00;0.09;46.05;;;;;9.80;1.00;;;;;;2280824;60;1102;-83
2021/12/20 08:42:25;378815.00;1.26;653.39;39218.00;0.13;68.54;;;;;9.70;1.00;;;;;;2280923;60;1048;-83
2021/12/20 08:44:53;194580.00;0.65;336.59;0.00;0.00;0.62;;;;;9.50;1.00;;;;;;2280768;60;1059;-83
2021/12/20 08:47:20;62975.00;0.21;109.62;0.00;0.00;0.62;;;;;9.30;1.00;;;;;;2280885;60;1402;-82
2021/12/20 08:49:47;120753.00;0.40;209.38;0.00;0.00;0.62;;;;;9.40;1.00;;;;;;2280650;60;1746;-83
2021/12/20 08:52:15;205470.00;0.68;355.34;0.00;0.00;0.62;;;;;9.20;1.00;;;;;;2280594;60;1994;-82
2021/12/20 08:54:42;150640.00;0.50;260.91;0.00;0.00;0.62;;;;;9.30;1.00;;;;;;2280679;60;1131;-84
2021/12/20 08:57:10;149408.00;0.50;258.79;0.00;0.00;0.62;;;;;9.20;1.00;;;;;;2280772;60;1395;-85
2021/12/20 08:59:37;123381.00;0.41;213.91;0.00;0.00;0.62;;;;;8.90;1.00;;;;;;2280651;60;1054;-83
2021/12/20 09:02:07;212542.00;0.71;367.51;0.00;0.00;0.62;;;;;9.20;1.00;;;;;;2280792;60;1046;-85
2021/12/20 09:04:34;221560.00;0.74;383.03;0.00;0.00;0.62;;;;;9.60;1.00;;;;;;2280867;60;1113;-84
2021/12/20 09:07:01;399689.00;1.33;689.27;82996.00;0.28;144.21;;;;;10.00;1.00;;;;;;2280599;60;1083;-83
2021/12/20 09:09:29;266100.00;0.89;459.64;0.00;0.00;0.62;;;;;9.90;1.00;;;;;;2280763;60;1504;-83
2021/12/20 09:11:56;144869.00;0.48;250.96;0.00;0.00;0.62;;;;;10.20;1.00;;;;;;2280480;60;1990;-84
2021/12/20 09:14:23;117146880.00;390.49;65120576.00;41629.00;0.14;72.71;;;;;10.00;1.00;;;;;;2280846;60;886;-85
2021/12/20 09:16:50;172674.00;0.58;298.87;0.00;0.00;0.62;;;;;9.80;1.00;;;;;;2280538;60;1160;-84
2021/12/20 09:19:18;98697.00;0.33;171.32;0.00;0.00;0.62;;;;;9.50;1.00;;;;;;2280665;60;1375;-82
2021/12/20 09:21:45;101360.00;0.34;175.92;0.00;0.00;0.62;;;;;9.50;1.00;;;;;;2280736;60;1089;-84
2021/12/20 09:24:12;191212.00;0.64;330.80;0.00;0.00;0.62;;;;;9.40;1.00;;;;;;2280636;60;1107;-84
2021/12/20 09:26:39;108649.00;0.36;188.50;0.00;0.00;0.62;;;;;9.40;1.00;;;;;;2280714;60;1090;-86
2021/12/20 09:29:05;472778.00;1.58;814.97;20189.00;0.07;35.60;;;;;9.40;1.00;;;;;;2280385;61;1335;-86
2021/12/20 09:31:33;125959.00;0.42;218.36;0.00;0.00;0.62;;;;;9.50;1.00;;;;;;2280643;60;1075;-86
2021/12/20 09:34:00;130509.00;0.44;226.21;0.00;0.00;0.62;;;;;9.50;1.00;;;;;;2280433;60;1133;-83
2021/12/20 09:36:29;218869.00;0.73;378.40;12162.00;0.04;21.69;;;;;9.80;1.00;;;;;;2280280;60;1102;-84
2021/12/20 09:38:56;109367.00;0.36;189.74;0.00;0.00;0.62;;;;;10.00;1.00;;;;;;2280711;60;1395;-83
2021/12/20 09:44:12;97700.00;0.33;169.60;0.00;0.00;0.62;;;;;10.00;1.00;;;;;;2280478;60;1411;-83
2021/12/20 09:46:40;110789.00;0.37;192.19;0.00;0.00;0.62;;;;;10.10;1.00;;;;;;2280622;60;1124;-85
2021/12/20 09:51:37;474971.00;1.58;818.74;0.00;0.00;0.62;;;;;10.30;1.00;;;;;;2281372;61;1288;-85
2021/12/20 09:54:04;319045.00;1.06;550.66;0.00;0.00;0.62;;;;;10.20;1.00;;;;;;2279941;61;1986;-85
2021/12/20 09:56:32;362809.00;1.21;625.88;0.00;0.00;0.62;;;;;9.80;1.00;;;;;;2279502;61;1219;-85
2021/12/20 09:59:01;376090.00;1.25;648.70;0.00;0.00;0.62;;;;;9.80;1.00;;;;;;2279772;61;1404;-86
2021/12/20 10:01:29;386884.00;1.29;667.26;52593.00;0.18;91.67;;;;;9.80;1.00;;;;;;2279617;61;1077;-85
2021/12/20 10:03:56;406197.00;1.35;700.46;0.00;0.00;0.62;;;;;9.30;1.00;;;;;;2273007;61;1057;-86
2021/12/20 10:06:24;516403.00;1.72;890.07;0.00;0.00;0.62;;;;;8.80;1.00;;;;;;2280233;61;1123;-86
2021/12/20 10:08:55;342812.00;1.14;591.51;0.00;0.00;0.62;;;;;8.80;1.00;;;;;;2269639;61;1322;-86
2021/12/20 10:11:27;425029.00;1.42;732.84;0.00;0.00;0.62;;;;;9.00;1.00;;;;;;2273049;61;1125;-86
2021/12/20 10:14:04;393704.00;1.31;678.98;0.00;0.00;0.62;;;;;9.00;1.00;;;;;;2280455;61;2064;-86
2021/12/20 10:16:31;535605.00;1.79;923.15;0.00;0.00;0.62;;;;;9.00;1.00;;;;;;2280149;61;1243;-86
2021/12/20 10:18:59;369988.00;1.23;638.22;0.00;0.00;0.62;;;;;9.30;1.00;;;;;;2280662;60;1434;-86
2021/12/20 10:21:36;353721.00;1.18;610.26;0.00;0.00;0.62;;;;;9.10;1.00;;;;;;2276761;61;1127;-86
2021/12/20 10:24:06;399864.00;1.33;689.57;0.00;0.00;0.62;;;;;9.30;1.00;;;;;;2273758;61;1112;-85
2021/12/20 10:26:40;536142.00;1.79;924.07;67943.00;0.23;118.21;;;;;9.50;1.00;;;;;;2273414;61;1189;-86
2021/12/20 10:29:19;543412.00;1.81;936.60;0.00;0.00;0.62;;;;;9.70;1.00;;;;;;2280696;61;1362;-86
2021/12/20 10:31:46;403693.00;1.35;696.15;0.00;0.00;0.62;;;;;10.20;1.00;;;;;;2273911;60;1173;-86